Time;durP1;ratioP1;P1;durP2;ratioP2;P2;SDS_P1;SDS_P2;PMS_P1;PMS_P2;Temp;Humidity;BMP_temperature;BMP_pressure;BME280_temperature;BME280_humidity;BME280_pressure;Samples;Min_cycle;Max_cycle;Signal;HPM_P1;HPM_P2
2023/08/04 00:01:37;;;;;;;12.20;11.97;;;17.30;99.90;;;;;;4908112;29;20882;-83
2023/08/04 00:04:13;;;;;;;12.20;11.90;;;17.30;99.90;;;;;;4907414;29;20470;-83
2023/08/04 00:06:45;;;;;;;12.50;12.00;;;17.30;99.90;;;;;;4913526;29;20499;-84
2023/08/04 00:09:16;;;;;;;12.50;11.90;;;17.20;99.90;;;;;;4924948;29;20484;-89
2023/08/04 00:11:54;;;;;;;12.80;12.50;;;17.20;99.90;;;;;;4916961;29;20814;-86
2023/08/04 00:14:29;;;;;;;12.00;11.53;;;17.10;99.90;;;;;;4932133;29;20496;-83
2023/08/04 00:17:05;;;;;;;12.00;11.70;;;17.10;99.90;;;;;;4916626;29;20488;-86
2023/08/04 00:19:41;;;;;;;12.10;11.80;;;17.10;99.90;;;;;;4919854;29;20493;-83
2023/08/04 00:22:13;;;;;;;12.10;11.80;;;17.20;99.90;;;;;;4914663;29;20500;-87
2023/08/04 00:24:48;;;;;;;11.80;11.60;;;17.10;99.90;;;;;;4919172;29;20460;-84
2023/08/04 00:27:25;;;;;;;12.07;11.77;;;17.20;99.90;;;;;;4916594;29;20460;-84
2023/08/04 00:30:04;;;;;;;12.53;12.23;;;17.10;99.90;;;;;;4918419;29;20468;-83
2023/08/04 00:32:42;;;;;;;11.80;11.50;;;17.20;99.90;;;;;;4917136;29;20480;-92
2023/08/04 00:35:18;;;;;;;11.90;11.60;;;17.10;99.90;;;;;;4921442;29;20458;-85
2023/08/04 00:37:53;;;;;;;12.77;12.37;;;17.10;99.90;;;;;;4916970;29;20464;-83
2023/08/04 00:40:28;;;;;;;12.20;11.80;;;17.10;99.90;;;;;;4915895;29;21029;-84
2023/08/04 00:42:58;;;;;;;11.83;11.63;;;17.10;99.90;;;;;;4914637;29;20477;-85
2023/08/04 00:45:34;;;;;;;12.67;11.70;;;17.20;99.90;;;;;;4912444;29;20992;-83
2023/08/04 00:48:09;;;;;;;11.87;11.57;;;17.20;99.90;;;;;;4916973;29;20576;-88
2023/08/04 00:50:48;;;;;;;11.73;11.43;;;17.20;99.90;;;;;;4915151;29;20480;-83
2023/08/04 00:53:28;;;;;;;11.90;11.70;;;17.10;99.90;;;;;;4918185;29;20461;-82
2023/08/04 00:56:03;;;;;;;12.03;11.73;;;17.10;99.90;;;;;;4919527;29;20472;-83
2023/08/04 00:58:41;;;;;;;11.40;11.20;;;17.10;99.90;;;;;;4922332;29;20465;-83
2023/08/04 01:01:21;;;;;;;11.50;11.30;;;17.00;99.90;;;;;;4914127;29;20484;-84
2023/08/04 01:03:56;;;;;;;11.90;11.60;;;16.90;99.90;;;;;;4911786;29;20472;-87
2023/08/04 01:06:44;;;;;;;12.27;11.97;;;17.00;99.90;;;;;;4914280;29;20461;-83
2023/08/04 01:09:27;;;;;;;11.70;11.50;;;17.00;99.90;;;;;;4913000;29;20572;-83
2023/08/04 01:12:13;;;;;;;11.90;11.60;;;17.00;99.90;;;;;;4915845;29;20493;-84
2023/08/04 01:14:52;;;;;;;12.00;11.70;;;17.00;99.90;;;;;;4899080;29;20462;-85
2023/08/04 01:17:36;;;;;;;12.33;11.93;;;17.00;99.90;;;;;;4909566;29;20507;-83
2023/08/04 01:20:10;;;;;;;11.80;11.40;;;16.90;99.90;;;;;;4911841;29;20475;-82
2023/08/04 01:22:47;;;;;;;12.23;11.80;;;16.90;99.90;;;;;;4911263;29;20466;-86
2023/08/04 01:25:30;;;;;;;11.60;11.40;;;17.00;99.90;;;;;;4912747;29;20472;-82
2023/08/04 01:28:10;;;;;;;12.63;12.23;;;16.90;99.90;;;;;;4910116;29;20461;-85
2023/08/04 01:30:46;;;;;;;11.87;11.57;;;16.90;99.90;;;;;;4914661;29;20524;-84
2023/08/04 01:33:21;;;;;;;11.87;11.57;;;16.90;99.90;;;;;;4911049;29;20470;-83
2023/08/04 01:35:53;;;;;;;11.83;11.33;;;16.90;99.90;;;;;;4909954;29;20551;-84
2023/08/04 01:38:23;;;;;;;12.07;11.77;;;16.90;99.90;;;;;;4909087;29;20986;-81
2023/08/04 01:40:55;;;;;;;12.40;12.10;;;16.80;99.90;;;;;;4909492;29;20847;-84
2023/08/04 01:43:33;;;;;;;12.63;12.13;;;16.80;99.90;;;;;;4910111;29;21108;-87
2023/08/04 01:46:04;;;;;;;11.80;11.50;;;16.80;99.90;;;;;;4928346;29;20473;-82
2023/08/04 01:48:33;;;;;;;12.40;12.00;;;16.80;99.90;;;;;;4912170;29;20536;-85
2023/08/04 01:51:07;;;;;;;11.90;11.70;;;16.80;99.90;;;;;;4913419;29;21062;-81
2023/08/04 01:53:41;;;;;;;12.03;11.73;;;16.80;99.90;;;;;;4914191;29;20465;-87
2023/08/04 01:56:11;;;;;;;12.00;11.70;;;16.70;99.90;;;;;;4906303;29;20484;-81
2023/08/04 01:58:42;;;;;;;12.23;12.03;;;16.70;99.90;;;;;;4910441;29;20477;-82
2023/08/04 02:01:24;;;;;;;12.63;12.30;;;16.70;99.90;;;;;;4913729;29;20566;-80
2023/08/04 02:03:59;;;;;;;12.37;12.07;;;16.70;99.90;;;;;;4915130;29;20477;-85
2023/08/04 02:06:31;;;;;;;12.23;11.93;;;16.60;99.90;;;;;;4911708;29;20461;-85
2023/08/04 02:09:03;;;;;;;11.77;11.50;;;16.70;99.90;;;;;;4914548;29;20469;-85
2023/08/04 02:11:39;;;;;;;12.27;11.97;;;16.60;99.90;;;;;;4907244;29;20489;-82
2023/08/04 02:14:09;;;;;;;12.23;12.03;;;16.60;99.90;;;;;;4913105;29;20875;-82
2023/08/04 02:16:41;;;;;;;12.80;12.20;;;16.70;99.90;;;;;;4911574;29;20489;-82
2023/08/04 02:19:13;;;;;;;12.50;12.20;;;16.70;99.90;;;;;;4912763;29;20577;-85
2023/08/04 02:21:44;;;;;;;12.50;12.10;;;16.60;99.90;;;;;;4909448;29;20870;-82
2023/08/04 02:24:20;;;;;;;12.40;12.10;;;16.60;1.00;;;;;;4910372;29;20807;-84
2023/08/04 02:26:50;;;;;;;12.73;12.43;;;16.50;99.90;;;;;;4911902;29;20449;-84
2023/08/04 02:29:21;;;;;;;12.20;11.90;;;16.60;1.00;;;;;;4910523;29;20800;-85
2023/08/04 02:31:56;;;;;;;12.47;12.17;;;16.60;99.90;;;;;;4908832;29;20513;-87
2023/08/04 02:34:30;;;;;;;12.40;12.20;;;16.60;99.90;;;;;;4910328;29;20556;-86
2023/08/04 02:37:03;;;;;;;11.83;11.53;;;16.60;1.00;;;;;;4913397;29;20517;-84
2023/08/04 02:39:43;;;;;;;12.20;12.00;;;16.60;99.90;;;;;;4911321;29;20821;-86
2023/08/04 02:42:17;;;;;;;12.50;12.20;;;16.70;99.90;;;;;;4912823;29;20496;-86
2023/08/04 02:44:58;;;;;;;12.53;12.03;;;16.70;99.90;;;;;;4908983;29;20465;-83
2023/08/04 02:47:29;;;;;;;12.27;11.97;;;16.60;99.90;;;;;;4914735;29;20461;-86
2023/08/04 02:50:06;;;;;;;12.33;12.03;;;16.60;99.90;;;;;;4910314;29;20469;-83
2023/08/04 02:52:38;;;;;;;12.30;11.90;;;16.60;99.90;;;;;;4914481;29;20516;-85
2023/08/04 02:55:20;;;;;;;12.27;11.97;;;16.60;1.00;;;;;;4913521;29;20461;-85
2023/08/04 02:57:52;;;;;;;12.67;12.33;;;16.50;1.00;;;;;;4915244;29;20485;-89
2023/08/04 03:00:27;;;;;;;12.53;12.10;;;16.50;1.00;;;;;;4906223;29;21013;-81
2023/08/04 03:03:09;;;;;;;12.33;12.00;;;16.50;1.00;;;;;;4904062;29;20649;-84
2023/08/04 03:05:38;;;;;;;12.57;12.27;;;16.40;1.00;;;;;;4910936;29;20468;-81
2023/08/04 03:08:14;;;;;;;12.70;12.30;;;16.50;1.00;;;;;;4920764;29;20451;-83
2023/08/04 03:10:47;;;;;;;12.30;12.00;;;16.60;1.00;;;;;;4923369;29;20527;-83
2023/08/04 03:13:19;;;;;;;12.30;12.10;;;16.60;99.90;;;;;;4919478;29;20799;-81
2023/08/04 03:15:55;;;;;;;12.60;12.30;;;16.60;99.90;;;;;;4917546;29;20456;-81
2023/08/04 03:18:30;;;;;;;12.87;12.50;;;16.70;99.90;;;;;;4931476;29;20545;-88
2023/08/04 03:21:03;;;;;;;12.93;12.50;;;16.70;99.90;;;;;;4913004;29;20482;-86
2023/08/04 03:23:36;;;;;;;12.30;12.00;;;16.70;99.90;;;;;;4914916;29;20817;-86
2023/08/04 03:26:18;;;;;;;12.73;12.33;;;16.60;99.90;;;;;;4916196;29;20452;-83
2023/08/04 03:28:52;;;;;;;12.30;12.00;;;16.70;99.90;;;;;;4914367;29;20544;-86
2023/08/04 03:31:29;;;;;;;12.20;12.00;;;16.70;99.90;;;;;;4912704;29;20517;-80
2023/08/04 03:34:10;;;;;;;12.87;12.33;;;16.70;99.90;;;;;;4922491;29;20480;-80
2023/08/04 03:36:46;;;;;;;12.40;12.10;;;16.70;99.90;;;;;;4920092;29;20905;-83
2023/08/04 03:39:22;;;;;;;12.63;12.23;;;16.60;1.00;;;;;;4915222;29;20491;-83
2023/08/04 03:42:02;;;;;;;13.57;13.20;;;16.60;1.00;;;;;;4916122;29;20468;-86
2023/08/04 03:44:32;;;;;;;12.80;12.40;;;16.50;1.00;;;;;;4914820;29;20461;-86
2023/08/04 03:47:07;;;;;;;12.17;11.97;;;16.50;49.30;;;;;;4914765;29;20496;-82
2023/08/04 03:49:39;;;;;;;12.73;12.43;;;16.40;99.90;;;;;;4911075;29;20458;-87
2023/08/04 03:52:12;;;;;;;13.40;12.90;;;16.50;99.90;;;;;;4913192;29;20493;-83
2023/08/04 03:54:44;;;;;;;13.20;12.70;;;16.50;99.90;;;;;;4913064;29;20493;-83
2023/08/04 03:57:20;;;;;;;13.10;12.70;;;16.50;99.90;;;;;;4913503;29;20467;-82
2023/08/04 03:59:57;;;;;;;14.33;13.70;;;16.40;99.90;;;;;;4908639;29;21080;-88
2023/08/04 04:02:34;;;;;;;13.40;13.00;;;16.50;99.90;;;;;;4903603;29;20581;-83
2023/08/04 04:05:08;;;;;;;13.50;12.97;;;16.50;99.90;;;;;;4912705;29;20471;-84
2023/08/04 04:07:38;;;;;;;13.57;13.17;;;16.60;99.90;;;;;;4910720;29;20546;-83
2023/08/04 04:10:12;;;;;;;13.20;12.90;;;16.60;99.90;;;;;;4912097;29;20456;-84
2023/08/04 04:12:47;;;;;;;13.80;13.40;;;16.60;99.90;;;;;;4913746;29;20457;-85
2023/08/04 04:15:20;;;;;;;14.13;13.53;;;16.60;99.90;;;;;;4912517;29;20461;-87
2023/08/04 04:17:55;;;;;;;13.97;13.40;;;16.60;99.90;;;;;;4914986;29;20490;-87
2023/08/04 04:20:30;;;;;;;14.10;13.50;;;16.70;99.90;;;;;;4909665;29;20469;-83
2023/08/04 04:23:06;;;;;;;13.90;13.50;;;16.60;99.90;;;;;;4907110;29;20539;-83
2023/08/04 04:25:43;;;;;;;14.00;13.60;;;16.60;1.00;;;;;;4912161;29;20469;-85
2023/08/04 04:28:25;;;;;;;13.43;13.13;;;16.60;1.00;;;;;;4909686;29;20472;-84
2023/08/04 04:34:00;;;;;;;13.87;13.47;;;16.60;1.00;;;;;;4912450;29;20460;-85
2023/08/04 04:36:40;;;;;;;14.10;13.53;;;16.60;1.00;;;;;;4912090;29;20470;-85
2023/08/04 04:39:11;;;;;;;13.50;13.20;;;16.60;1.00;;;;;;4908812;29;20496;-85
2023/08/04 04:41:46;;;;;;;13.70;13.30;;;16.60;99.90;;;;;;4908654;29;21639;-84
2023/08/04 04:44:22;;;;;;;13.53;13.10;;;16.60;1.00;;;;;;4906901;29;21034;-84
2023/08/04 04:46:58;;;;;;;13.77;13.47;;;16.70;1.00;;;;;;4901710;29;20473;-87
2023/08/04 04:49:34;;;;;;;13.97;13.57;;;16.70;1.00;;;;;;4918681;29;20453;-86
2023/08/04 04:52:05;;;;;;;13.80;13.50;;;16.80;1.00;;;;;;4905606;29;20977;-85
2023/08/04 04:54:34;;;;;;;13.47;13.17;;;16.80;99.90;;;;;;4903829;29;20469;-85
2023/08/04 04:57:04;;;;;;;13.30;13.00;;;16.80;99.90;;;;;;4906541;29;20467;-85
2023/08/04 04:59:38;;;;;;;14.03;13.73;;;16.90;99.90;;;;;;4906514;29;20621;-86
2023/08/04 05:02:15;;;;;;;14.10;13.70;;;16.90;99.90;;;;;;4906608;29;20515;-83
2023/08/04 05:04:44;;;;;;;13.60;13.30;;;16.90;99.90;;;;;;4908152;29;20515;-83
2023/08/04 05:07:13;;;;;;;13.70;13.40;;;16.90;1.00;;;;;;4910277;29;20469;-84
2023/08/04 05:09:46;;;;;;;14.50;13.97;;;16.90;1.00;;;;;;4905283;29;20461;-84
2023/08/04 05:12:16;;;;;;;14.50;13.90;;;16.90;1.00;;;;;;4924329;29;20580;-83
2023/08/04 05:14:54;;;;;;;14.77;14.20;;;16.80;1.00;;;;;;4911837;29;20473;-85
2023/08/04 05:17:25;;;;;;;14.50;14.00;;;16.80;99.90;;;;;;4905614;29;20464;-84
2023/08/04 05:20:00;;;;;;;14.77;14.27;;;16.80;1.00;;;;;;4907379;29;20493;-85
2023/08/04 05:22:31;;;;;;;14.57;14.17;;;16.90;1.00;;;;;;4907561;29;20488;-84
2023/08/04 05:25:03;;;;;;;14.50;14.00;;;16.90;1.00;;;;;;4913281;29;20512;-84
2023/08/04 05:27:39;;;;;;;14.50;13.77;;;16.90;1.00;;;;;;4912288;29;20849;-83
2023/08/04 05:30:16;;;;;;;14.10;13.70;;;17.00;1.00;;;;;;4911100;29;20867;-84
2023/08/04 05:32:47;;;;;;;14.37;13.97;;;17.00;1.00;;;;;;4907900;29;20470;-84
2023/08/04 05:35:21;;;;;;;14.10;13.80;;;17.00;1.00;;;;;;4913666;29;20464;-84
2023/08/04 05:37:49;;;;;;;14.30;14.00;;;17.10;1.00;;;;;;4911378;29;20818;-86
2023/08/04 05:40:24;;;;;;;14.10;13.70;;;17.10;99.90;;;;;;4902513;29;20900;-86
2023/08/04 05:42:54;;;;;;;13.90;13.60;;;17.20;99.90;;;;;;4907634;29;20461;-83
2023/08/04 05:45:28;;;;;;;14.83;14.33;;;17.30;99.90;;;;;;4910286;29;20501;-83
2023/08/04 05:48:00;;;;;;;14.80;14.20;;;17.40;99.90;;;;;;4912152;29;20473;-83
2023/08/04 05:50:33;;;;;;;15.13;14.73;;;17.40;99.90;;;;;;4911138;29;20879;-79
2023/08/04 05:53:04;;;;;;;15.00;14.60;;;17.40;99.90;;;;;;4913589;29;20478;-82
2023/08/04 05:55:42;;;;;;;14.70;14.30;;;17.50;99.90;;;;;;4907278;29;20469;-82
2023/08/04 05:58:17;;;;;;;16.13;15.40;;;17.50;99.90;;;;;;4906132;29;20571;-80
2023/08/04 06:00:51;;;;;;;14.93;14.43;;;17.50;99.90;;;;;;4907360;29;20492;-83
2023/08/04 06:03:25;;;;;;;14.20;13.80;;;17.50;99.90;;;;;;4909817;29;20493;-81
2023/08/04 06:06:24;;;;;;;14.80;14.40;;;17.50;67.40;;;;;;4912700;29;20464;-79
2023/08/04 06:08:55;;;;;;;14.50;14.10;;;17.60;99.90;;;;;;4910796;29;20457;-84
2023/08/04 06:11:33;;;;;;;14.50;14.20;;;17.60;60.30;;;;;;4912058;29;20485;-81
2023/08/04 06:14:04;;;;;;;15.33;14.57;;;17.70;31.80;;;;;;4909197;28;20458;-84
2023/08/04 06:16:44;;;;;;;14.90;14.40;;;17.70;2.90;;;;;;4920240;29;20575;-81
2023/08/04 06:19:18;;;;;;;14.37;14.00;;;17.70;1.00;;;;;;4913044;29;20502;-79
2023/08/04 06:21:56;;;;;;;14.90;14.50;;;17.70;1.00;;;;;;4917281;29;20492;-80
2023/08/04 06:24:31;;;;;;;15.13;14.67;;;17.80;1.00;;;;;;4912467;29;20478;-81
2023/08/04 06:27:03;;;;;;;15.10;14.60;;;17.80;40.10;;;;;;4907215;29;20509;-79
2023/08/04 06:29:32;;;;;;;15.27;14.87;;;17.80;25.00;;;;;;4903963;29;20457;-79
2023/08/04 06:32:11;;;;;;;15.60;15.10;;;17.80;1.00;;;;;;4908956;29;20576;-79
2023/08/04 06:34:43;;;;;;;15.00;14.60;;;17.90;42.40;;;;;;4904836;29;20545;-80
2023/08/04 06:37:16;;;;;;;15.50;15.10;;;17.90;1.00;;;;;;4899449;29;21449;-77
2023/08/04 06:39:53;;;;;;;14.77;14.37;;;18.00;1.00;;;;;;4912112;29;20506;-79
2023/08/04 06:42:23;;;;;;;15.43;14.90;;;18.00;1.00;;;;;;4905555;29;20506;-79
2023/08/04 06:44:52;;;;;;;15.27;14.87;;;18.00;1.00;;;;;;4898806;29;20488;-80
2023/08/04 06:51:50;;;;;;;14.80;14.40;;;18.00;1.00;;;;;;4861434;29;20894;-78
2023/08/04 06:54:22;;;;;;;15.10;14.60;;;18.10;1.00;;;;;;4902930;29;20925;-83
2023/08/04 06:57:01;;;;;;;;;;;;;;;;;;;;;
2023/08/04 06:59:34;;;;;;;14.87;14.37;;;18.10;1.00;;;;;;4900497;29;20912;-80
2023/08/04 07:02:02;;;;;;;14.87;14.47;;;18.10;1.00;;;;;;4897939;28;20492;-82
2023/08/04 07:04:54;;;;;;;15.37;14.87;;;18.20;1.00;;;;;;4921813;29;20457;-80
2023/08/04 07:07:24;;;;;;;15.57;15.07;;;18.30;1.00;;;;;;4905929;28;20503;-84
2023/08/04 07:10:01;;;;;;;15.47;15.07;;;18.40;1.00;;;;;;4920735;29;20454;-79
2023/08/04 07:16:28;;;;;;;15.07;14.67;;;18.50;1.00;;;;;;4887700;29;20957;-80
2023/08/04 07:19:03;;;;;;;15.30;14.90;;;18.50;1.00;;;;;;4903172;29;20868;-81
2023/08/04 07:24:29;;;;;;;15.60;15.17;;;18.70;1.00;;;;;;4932442;23;20506;-82
2023/08/04 07:31:05;;;;;;;15.90;15.30;;;19.10;1.00;;;;;;4942203;23;20494;-81
2023/08/04 07:33:47;;;;;;;15.20;14.80;;;19.20;1.00;;;;;;4907572;29;20458;-79
2023/08/04 07:36:17;;;;;;;15.70;15.13;;;19.40;1.00;;;;;;4904021;29;20541;-79
2023/08/04 07:39:37;;;;;;;14.97;14.67;;;19.50;1.00;;;;;;4903385;29;20556;-80
2023/08/04 07:42:56;;;;;;;15.40;14.80;;;19.40;1.00;;;;;;4891387;29;20487;-79
2023/08/04 07:45:29;;;;;;;15.90;15.30;;;19.40;1.00;;;;;;4888099;29;20463;-83
2023/08/04 07:48:02;;;;;;;15.80;15.30;;;19.50;1.00;;;;;;4884761;29;20474;-81
2023/08/04 07:50:36;;;;;;;16.43;15.73;;;19.50;1.00;;;;;;4885477;29;20738;-79
2023/08/04 07:53:09;;;;;;;15.30;14.90;;;19.50;1.00;;;;;;4888793;29;20465;-78
2023/08/04 07:55:43;;;;;;;15.33;14.93;;;19.50;1.00;;;;;;4884770;29;20469;-79
2023/08/04 07:58:19;;;;;;;15.33;14.93;;;19.40;1.00;;;;;;4886230;29;20462;-79
2023/08/04 08:01:07;;;;;;;15.00;14.50;;;19.40;1.00;;;;;;4886991;29;20483;-82
2023/08/04 08:03:38;;;;;;;15.50;14.83;;;19.40;1.00;;;;;;4887177;29;20470;-79
2023/08/04 08:06:09;;;;;;;15.00;14.50;;;19.40;1.00;;;;;;4885623;29;20697;-78
2023/08/04 08:08:43;;;;;;;15.10;14.60;;;19.40;1.00;;;;;;4885989;29;21055;-78
2023/08/04 08:11:18;;;;;;;15.30;14.80;;;19.40;1.00;;;;;;4887885;29;20553;-82
2023/08/04 08:14:03;;;;;;;15.00;14.60;;;19.30;1.00;;;;;;4885705;29;20530;-79
2023/08/04 08:16:36;;;;;;;15.43;14.77;;;19.30;1.00;;;;;;4884408;29;20475;-79
2023/08/04 08:19:07;;;;;;;15.57;14.90;;;19.30;1.00;;;;;;4885870;29;20455;-80
2023/08/04 08:21:50;;;;;;;15.13;14.73;;;19.40;1.00;;;;;;4884718;29;20563;-81
2023/08/04 08:24:27;;;;;;;16.07;15.47;;;19.50;1.00;;;;;;4885492;29;20932;-83
2023/08/04 08:26:59;;;;;;;16.20;15.60;;;19.60;1.00;;;;;;4889087;29;20462;-80
2023/08/04 08:29:31;;;;;;;16.73;16.20;;;19.70;1.00;;;;;;4894052;29;20538;-80
2023/08/04 08:32:10;;;;;;;15.23;14.80;;;19.80;1.00;;;;;;4889332;29;20495;-81
2023/08/04 08:34:43;;;;;;;15.80;15.40;;;19.80;1.00;;;;;;4894678;29;21037;-81
2023/08/04 08:37:19;;;;;;;15.30;14.90;;;19.90;1.00;;;;;;4893726;29;20469;-80
2023/08/04 08:39:55;;;;;;;15.17;14.77;;;19.90;1.00;;;;;;4890018;29;20884;-79
2023/08/04 08:42:23;;;;;;;15.80;15.20;;;20.10;1.00;;;;;;4888399;29;20518;-81
2023/08/04 08:44:55;;;;;;;15.00;14.60;;;20.20;1.00;;;;;;4892147;29;20515;-79
2023/08/04 08:47:30;;;;;;;15.00;14.50;;;20.20;1.00;;;;;;4887754;29;20979;-80
2023/08/04 08:50:04;;;;;;;15.40;15.00;;;20.30;1.00;;;;;;4888996;29;20824;-81
2023/08/04 08:52:36;;;;;;;15.40;14.90;;;20.20;1.00;;;;;;4889492;29;20494;-80
2023/08/04 08:55:06;;;;;;;15.30;14.90;;;20.20;1.00;;;;;;4889337;29;20994;-80
2023/08/04 08:57:38;;;;;;;15.07;14.67;;;20.20;1.00;;;;;;4891130;29;20471;-82
2023/08/04 09:00:13;;;;;;;15.50;15.03;;;20.30;1.00;;;;;;4891672;29;20491;-80
2023/08/04 09:02:51;;;;;;;15.43;15.03;;;20.30;1.00;;;;;;4886276;29;20823;-79
2023/08/04 09:05:44;;;;;;;15.60;15.20;;;20.30;1.00;;;;;;4893766;29;20459;-80
2023/08/04 09:08:12;;;;;;;15.40;15.00;;;20.40;1.00;;;;;;4891198;29;20509;-80
2023/08/04 09:10:57;;;;;;;15.03;14.53;;;20.40;1.00;;;;;;4891666;29;20473;-81
2023/08/04 09:13:42;;;;;;;15.37;14.90;;;20.50;1.00;;;;;;4890317;29;20459;-81
2023/08/04 09:16:22;;;;;;;14.77;14.33;;;20.50;1.00;;;;;;4884444;29;20665;-80
2023/08/04 09:19:11;;;;;;;15.90;15.40;;;20.50;99.90;;;;;;4889614;29;20547;-84
2023/08/04 09:21:43;;;;;;;15.60;15.20;;;20.50;99.90;;;;;;4886536;29;20510;-79
2023/08/04 09:24:14;;;;;;;15.50;14.97;;;20.40;99.90;;;;;;4891781;29;20558;-78
2023/08/04 09:26:57;;;;;;;15.30;14.90;;;20.50;99.90;;;;;;4889522;29;20483;-80
2023/08/04 09:29:27;;;;;;;15.43;15.03;;;20.60;1.00;;;;;;4895354;29;20462;-80
2023/08/04 09:31:59;;;;;;;15.40;14.90;;;20.70;1.00;;;;;;4885962;29;20528;-83
2023/08/04 09:34:40;;;;;;;14.93;14.53;;;20.80;99.90;;;;;;4887022;29;20479;-85
2023/08/04 09:37:20;;;;;;;15.20;14.70;;;20.80;99.90;;;;;;4889966;29;20446;-79
2023/08/04 09:39:58;;;;;;;15.83;15.30;;;20.80;99.90;;;;;;4883994;29;20452;-80
2023/08/04 09:42:31;;;;;;;15.13;14.73;;;20.80;99.90;;;;;;4888722;29;20498;-78
2023/08/04 09:45:05;;;;;;;14.90;14.50;;;20.80;99.90;;;;;;4904576;29;20964;-79
2023/08/04 09:47:49;;;;;;;16.27;15.60;;;20.80;99.90;;;;;;4882949;29;20464;-80
2023/08/04 09:50:26;;;;;;;16.77;16.07;;;20.70;99.90;;;;;;4884355;29;20465;-80
2023/08/04 09:53:03;;;;;;;15.80;15.20;;;20.70;99.90;;;;;;4884644;29;20458;-79
2023/08/04 09:55:38;;;;;;;16.00;15.40;;;20.70;99.90;;;;;;4884524;29;20504;-80
2023/08/04 09:58:15;;;;;;;15.70;15.20;;;20.60;1.00;;;;;;4885987;29;20841;-81
2023/08/04 10:00:45;;;;;;;16.00;15.50;;;20.70;1.00;;;;;;4883801;29;20582;-79
2023/08/04 10:03:25;;;;;;;16.23;15.43;;;20.50;1.00;;;;;;4889334;29;20469;-86
2023/08/04 10:06:13;;;;;;;16.50;15.77;;;20.50;99.90;;;;;;4888884;29;20729;-87
2023/08/04 10:08:58;;;;;;;16.73;15.83;;;20.40;1.00;;;;;;4887514;29;20455;-85
2023/08/04 10:11:26;;;;;;;15.80;15.40;;;20.30;99.90;;;;;;4888738;29;20494;-82
2023/08/04 10:14:04;;;;;;;15.97;15.40;;;20.20;99.90;;;;;;4905766;29;20998;-84
2023/08/04 10:16:35;;;;;;;15.93;15.37;;;20.20;99.90;;;;;;4891437;29;20991;-81
2023/08/04 10:19:13;;;;;;;16.63;16.10;;;20.10;99.90;;;;;;4889675;29;20458;-85
2023/08/04 10:21:48;;;;;;;16.67;16.07;;;20.10;1.00;;;;;;4885778;29;20491;-81
2023/08/04 10:24:27;;;;;;;16.27;15.70;;;20.10;99.90;;;;;;4883949;29;20475;-80
2023/08/04 10:27:04;;;;;;;16.30;15.70;;;20.10;99.90;;;;;;4891886;29;20504;-78
2023/08/04 10:29:40;;;;;;;16.47;15.90;;;20.10;99.90;;;;;;4885518;29;21155;-79
2023/08/04 10:32:09;;;;;;;15.80;15.40;;;20.20;1.00;;;;;;4890940;29;20517;-81
2023/08/04 10:34:43;;;;;;;15.70;15.30;;;20.30;1.00;;;;;;4889652;29;20737;-80
2023/08/04 10:37:20;;;;;;;15.93;15.43;;;20.40;1.00;;;;;;4895498;29;20455;-82
2023/08/04 10:40:01;;;;;;;15.90;15.40;;;20.50;99.90;;;;;;4890100;29;20456;-79
2023/08/04 10:42:35;;;;;;;15.93;15.37;;;20.70;27.50;;;;;;4907826;29;20578;-79
2023/08/04 10:45:09;;;;;;;15.57;15.00;;;20.90;99.90;;;;;;4887349;29;20468;-80
2023/08/04 10:47:49;;;;;;;15.57;15.07;;;21.10;99.90;;;;;;4887462;29;20927;-79
2023/08/04 10:50:41;;;;;;;15.10;14.70;;;21.30;19.50;;;;;;4888737;29;20476;-82
2023/08/04 10:53:12;;;;;;;14.90;14.40;;;21.50;99.90;;;;;;4886008;29;20463;-82
2023/08/04 10:55:54;;;;;;;14.80;14.40;;;21.50;99.90;;;;;;4891050;29;20556;-84
2023/08/04 10:58:26;;;;;;;15.30;14.90;;;21.60;74.40;;;;;;4892457;29;20454;-81
2023/08/04 11:01:00;;;;;;;15.60;15.00;;;21.60;15.50;;;;;;4887720;29;20482;-83
2023/08/04 11:03:36;;;;;;;14.90;14.50;;;21.60;1.00;;;;;;4890065;29;20459;-82
2023/08/04 11:06:08;;;;;;;15.53;15.03;;;21.40;1.00;;;;;;4890484;29;20467;-81
2023/08/04 11:08:49;;;;;;;15.10;14.70;;;21.30;1.00;;;;;;4890237;29;20827;-81
2023/08/04 11:11:22;;;;;;;14.70;14.30;;;21.20;1.00;;;;;;4885373;29;20532;-81
2023/08/04 11:14:03;;;;;;;15.43;15.00;;;21.10;99.90;;;;;;4886191;29;20964;-83
2023/08/04 11:16:39;;;;;;;15.83;15.33;;;21.00;99.90;;;;;;4887580;29;20478;-79
2023/08/04 11:19:13;;;;;;;16.07;15.57;;;20.80;99.90;;;;;;4892246;29;20458;-79
2023/08/04 11:21:46;;;;;;;16.60;15.90;;;20.70;1.00;;;;;;4889996;29;20550;-81
2023/08/04 11:24:28;;;;;;;16.73;16.03;;;20.60;1.00;;;;;;4886618;29;20605;-81
2023/08/04 11:27:05;;;;;;;16.53;15.77;;;20.50;1.00;;;;;;4890006;29;20964;-81
2023/08/04 11:29:37;;;;;;;16.20;15.20;;;20.40;99.90;;;;;;4887799;29;20835;-80
2023/08/04 11:32:10;;;;;;;16.93;16.13;;;20.30;1.00;;;;;;4901889;29;20575;-80
2023/08/04 11:34:45;;;;;;;15.30;14.83;;;20.30;1.00;;;;;;4889339;29;20987;-79
2023/08/04 11:37:28;;;;;;;15.60;15.10;;;20.20;1.00;;;;;;4885284;29;20467;-79
2023/08/04 11:40:01;;;;;;;15.87;15.27;;;20.10;99.90;;;;;;4890254;29;20470;-81
2023/08/04 11:42:38;;;;;;;16.20;15.60;;;20.10;99.90;;;;;;4892806;29;20479;-81
2023/08/04 11:45:12;;;;;;;16.40;15.80;;;20.10;1.00;;;;;;4893977;29;20482;-81
2023/08/04 11:47:49;;;;;;;16.73;15.97;;;20.10;38.40;;;;;;4888895;29;20473;-84
2023/08/04 11:50:21;;;;;;;16.00;15.50;;;20.10;26.00;;;;;;4886622;29;20467;-82
2023/08/04 11:52:56;;;;;;;16.37;15.67;;;20.10;99.90;;;;;;4887144;29;20980;-80
2023/08/04 11:55:34;;;;;;;15.80;15.30;;;20.10;44.00;;;;;;4888817;29;21001;-83
2023/08/04 11:58:02;;;;;;;15.93;15.23;;;20.10;99.90;;;;;;4890209;29;20467;-81
2023/08/04 12:00:38;;;;;;;15.67;15.17;;;20.20;99.90;;;;;;4886400;29;20467;-80
2023/08/04 12:03:19;;;;;;;16.03;15.43;;;20.00;1.00;;;;;;4887679;29;20484;-82
2023/08/04 12:05:54;;;;;;;15.83;15.33;;;20.10;99.90;;;;;;4888018;29;20469;-85
2023/08/04 12:08:30;;;;;;;15.50;15.00;;;20.20;1.00;;;;;;4890292;29;20475;-84
2023/08/04 12:11:08;;;;;;;15.67;15.17;;;20.30;99.90;;;;;;4881618;29;20493;-82
2023/08/04 12:13:43;;;;;;;15.80;15.40;;;20.40;99.90;;;;;;4889072;29;20461;-83
2023/08/04 12:16:21;;;;;;;16.20;15.60;;;20.60;1.00;;;;;;4891602;29;20466;-85
2023/08/04 12:18:52;;;;;;;15.70;15.10;;;20.60;1.00;;;;;;4891388;29;20494;-82
2023/08/04 12:21:29;;;;;;;15.33;14.80;;;20.70;1.00;;;;;;4889298;29;20487;-84
2023/08/04 12:24:04;;;;;;;14.80;14.30;;;20.80;99.90;;;;;;4889546;29;21202;-82
2023/08/04 12:26:41;;;;;;;15.33;14.73;;;20.90;99.90;;;;;;4887370;29;20454;-83
2023/08/04 12:29:18;;;;;;;15.00;14.60;;;21.10;99.90;;;;;;4890694;29;20473;-79
2023/08/04 12:32:00;;;;;;;15.30;14.73;;;21.20;1.00;;;;;;4891802;29;20487;-85
2023/08/04 12:34:34;;;;;;;15.10;14.70;;;21.30;1.00;;;;;;4907459;29;20450;-82
2023/08/04 12:37:09;;;;;;;15.23;14.83;;;21.30;99.90;;;;;;4890483;29;20861;-82
2023/08/04 12:39:49;;;;;;;15.27;14.67;;;21.30;99.90;;;;;;4890503;29;20836;-82
2023/08/04 12:42:40;;;;;;;15.60;15.10;;;21.20;1.00;;;;;;4893046;29;20483;-84
2023/08/04 12:45:12;;;;;;;15.30;14.90;;;21.10;1.00;;;;;;4893615;29;20546;-84
2023/08/04 12:47:48;;;;;;;15.43;14.97;;;21.00;99.90;;;;;;4891930;29;20855;-83
2023/08/04 12:50:19;;;;;;;15.60;15.10;;;20.90;1.00;;;;;;4897393;29;20474;-83
2023/08/04 12:52:55;;;;;;;15.27;14.87;;;20.90;1.00;;;;;;4898198;29;20809;-83
2023/08/04 12:55:46;;;;;;;15.23;14.73;;;20.80;99.90;;;;;;4882811;29;20462;-80
2023/08/04 12:58:22;;;;;;;15.30;14.90;;;20.70;1.00;;;;;;4891608;29;20466;-83
2023/08/04 13:00:59;;;;;;;15.60;15.10;;;20.60;1.00;;;;;;4895453;29;20546;-85
2023/08/04 13:03:40;;;;;;;15.33;14.93;;;20.70;99.90;;;;;;4889436;29;20506;-84
2023/08/04 13:06:22;;;;;;;16.00;15.50;;;20.70;99.90;;;;;;4887045;29;20475;-84
2023/08/04 13:08:52;;;;;;;15.20;14.70;;;20.50;99.90;;;;;;4889575;29;21040;-84
2023/08/04 13:11:28;;;;;;;16.50;15.53;;;20.40;1.00;;;;;;4889367;29;20479;-83
2023/08/04 13:13:59;;;;;;;15.80;15.30;;;20.30;1.00;;;;;;4893674;29;20482;-83
2023/08/04 13:16:32;;;;;;;15.50;15.10;;;20.30;1.00;;;;;;4893283;29;20463;-84
2023/08/04 13:19:07;;;;;;;15.67;15.10;;;20.10;1.00;;;;;;4892768;29;20650;-83
2023/08/04 13:21:56;;;;;;;15.63;15.13;;;20.00;1.00;;;;;;4888193;29;20479;-81
2023/08/04 13:24:31;;;;;;;16.17;15.50;;;20.00;1.00;;;;;;4893686;29;20497;-79
2023/08/04 13:27:08;;;;;;;15.60;15.20;;;19.90;96.60;;;;;;4887318;29;20470;-79
2023/08/04 13:29:44;;;;;;;15.90;15.40;;;19.90;1.00;;;;;;4888425;29;20471;-80
2023/08/04 13:32:21;;;;;;;15.77;15.30;;;19.90;99.90;;;;;;4894012;29;20491;-81
2023/08/04 13:34:54;;;;;;;16.27;15.77;;;19.90;1.00;;;;;;4895930;29;20995;-81